Stena Germanica — SKPZ — position and weather

sailwx.info

Track history (hours):
 
Tides and Currents Weather Stations Pressure Air Temp Water Temp Dewpoint Dewpoint Depression Visibility Wind Speed Wind Dir Waves Ship Positions

Stena Germanica

Last reported at 2014-Oct-31 01:23 UTC. Time now 2014-Oct-31 04:08 UTC.
Position N 55°14' E 017°50'.

Length 176 m; draft 6.2 m.

Type: Passenger vessel. MMSI: 265292000.

Date/timePositionNaut miles runAvg speedWind from/ knotsBaromVisibWave heightAir tempDewpointWater temp
2014-Oct-31 01:23N 55°14' E 017°50'1316.2
2014-Oct-31 00:33N 55°06' E 018°10'1616.1
2014-Oct-30 23:33N 54°57' E 018°33'1615.7
2014-Oct-30 22:33N 54°45' E 018°51'1313.5
2014-Oct-30 21:33N 54°32' E 018°49'1110.6
2014-Oct-30 20:34N 54°33' E 018°30'0 0.0
2014-Oct-30 19:33N 54°33' E 018°30'7 7.3
2014-Oct-30 18:33N 54°32' E 018°43'1313.2
2014-Oct-30 17:34N 54°45' E 018°51'1817.8
2014-Oct-30 16:33N 54°58' E 018°30'1917.7
2014-Oct-30 15:29N 55°09' E 018°03'8817.7
2014-Oct-30 10:31N 55°57' E 015°53'1414.9
2014-Oct-30 09:33N 56°07' E 015°35'3 3.4
2014-Oct-30 08:33N 56°10' E 015°38'1 0.5
2014-Oct-30 07:33N 56°10' E 015°37'1211.7
2014-Oct-30 06:33N 55°59' E 015°47'9014.8
2014-Oct-30 00:30N 55°10' E 018°00'1414.8
2014-Oct-29 23:33N 55°02' E 018°20'1514.7
2014-Oct-29 22:33N 54°53' E 018°39'1514.9
2014-Oct-29 21:33N 54°42' E 018°57'1313.1
2014-Oct-29 20:33N 54°32' E 018°42'7 6.5
2014-Oct-29 19:32N 54°33' E 018°30'0 0.0
2014-Oct-29 18:33N 54°33' E 018°30'7 7.3
2014-Oct-29 17:33N 54°32' E 018°43'1413.6
2014-Oct-29 16:34N 54°45' E 018°51'1818.0
2014-Oct-29 15:33N 54°58' E 018°31'1917.9
2014-Oct-29 14:30N 55°10' E 018°04'86 9.4
2014-Oct-29 05:20N 55°57' E 015°57'3316.6
2014-Oct-29 03:20N 55°38' E 016°45'2116.9
2014-Oct-29 02:04N 55°26' E 017°17'917.1
2014-Oct-29 01:33N 55°21' E 017°30'1717.1
2014-Oct-29 00:34N 55°12' E 017°55'1717.0
2014-Oct-28 23:33N 55°03' E 018°20'1717.5
2014-Oct-28 22:34N 54°51' E 018°43'1616.3
2014-Oct-28 21:34N 54°36' E 018°55'1313.1
2014-Oct-28 20:33N 54°32' E 018°33'2 1.9
2014-Oct-28 19:33N 54°33' E 018°30'0 0.0
2014-Oct-28 18:33N 54°33' E 018°30'8 8.3
2014-Oct-28 17:33N 54°32' E 018°44'1413.8
2014-Oct-28 16:33N 54°46' E 018°50'1717.3
2014-Oct-28 15:33N 54°58' E 018°30'1817.2
2014-Oct-28 14:32N 55°08' E 018°04'1817.6
2014-Oct-28 13:31N 55°18' E 017°38'2117.6
2014-Oct-28 12:20N 55°29' E 017°07'1517.5
2014-Oct-28 11:29N 55°38' E 016°46'1617.3
2014-Oct-28 10:33N 55°46' E 016°21'3315.9
2014-Oct-28 08:28N 56°06' E 015°34'7910.0
2014-Oct-28 00:33N 55°22' E 017°30'1614.6
2014-Oct-27 23:28N 55°13' E 017°53'1614.7
2014-Oct-27 22:22N 55°04' E 018°17'1214.7
2014-Oct-27 21:33N 54°57' E 018°34'1514.6
2014-Oct-27 20:33N 54°46' E 018°50'1312.7
2014-Oct-27 19:33N 54°33' E 018°51'1211.5
2014-Oct-27 18:33N 54°33' E 018°31'0 0.3
2014-Oct-27 17:33N 54°33' E 018°30'0 0.0
2014-Oct-27 16:33N 54°33' E 018°30'0 0.0
2014-Oct-27 15:33N 54°33' E 018°30'0 0.0
2014-Oct-27 14:33N 54°33' E 018°30'0 0.0
2014-Oct-27 13:33N 54°33' E 018°30'0 0.0
2014-Oct-27 12:33N 54°33' E 018°30'0 0.0
2014-Oct-27 11:33N 54°33' E 018°30'0 0.0
2014-Oct-27 10:33N 54°33' E 018°30'0 0.0
2014-Oct-27 09:33N 54°33' E 018°30'0 0.0
2014-Oct-27 08:33N 54°33' E 018°30'1 1.0
2014-Oct-27 07:33N 54°32' E 018°32'1211.8
2014-Oct-27 06:33N 54°35' E 018°52'1211.6
2014-Oct-27 05:34N 54°46' E 018°49'1515.0
2014-Oct-27 04:34N 54°58' E 018°32'1515.3
2014-Oct-27 03:34N 55°06' E 018°10'1615.6
2014-Oct-27 02:33N 55°15' E 017°47'9112.2
2014-Oct-26 19:04N 56°10' E 015°38'10515.0
2014-Oct-26 12:05N 55°08' E 018°08'916.4
2014-Oct-26 11:33N 55°03' E 018°20'1616.3
2014-Oct-26 10:34N 54°52' E 018°41'1616.2
2014-Oct-26 09:34N 54°39' E 018°57'1413.7
2014-Oct-26 08:34N 54°32' E 018°37'4 3.6
2014-Oct-26 07:32N 54°33' E 018°30'0 0.0
2014-Oct-26 06:32N 54°33' E 018°30'7 7.4
2014-Oct-26 05:33N 54°32' E 018°43'1312.9
2014-Oct-26 04:33N 54°43' E 018°54'1615.9
2014-Oct-26 03:33N 54°55' E 018°36'1615.8
2014-Oct-26 02:33N 55°05' E 018°14'1716.0
2014-Oct-26 01:30N 55°14' E 017°49'7016.0
2014-Oct-25 21:06N 55°53' E 016°05'916.1
2014-Oct-25 20:33N 55°57' E 015°52'1413.7
2014-Oct-25 19:33N 56°08' E 015°35'3 2.8
2014-Oct-25 18:34N 56°10' E 015°38'0 0.0
2014-Oct-25 17:33N 56°10' E 015°38'9 9.4
2014-Oct-25 16:34N 56°01' E 015°42'10116.8
2014-Oct-25 10:34N 55°06' E 018°11'1716.7
2014-Oct-25 09:34N 54°56' E 018°35'1716.7
2014-Oct-25 08:34N 54°43' E 018°54'1313.3
2014-Oct-25 07:34N 54°32' E 018°43'8 7.3
2014-Oct-25 06:31N 54°33' E 018°30'0 0.0
2014-Oct-25 05:31N 54°33' E 018°30'7 7.5
2014-Oct-25 04:33N 54°32' E 018°43'1312.8
2014-Oct-25 03:33N 54°43' E 018°56'1414.5
2014-Oct-25 02:33N 54°55' E 018°42'1414.4
2014-Oct-25 01:33N 55°02' E 018°21'1414.5
2014-Oct-25 00:33N 55°10' E 017°60'1714.6
2014-Oct-24 23:23N 55°20' E 017°35'5714.3
2014-Oct-24 19:26N 55°50' E 016°11'1314.8
2014-Oct-24 18:33N 55°58' E 015°52'1313.1
2014-Oct-24 17:33N 56°07' E 015°35'4 3.5
2014-Oct-24 16:33N 56°10' E 015°38'0 0.0
2014-Oct-24 15:33N 56°10' E 015°38'0 0.0
2014-Oct-24 14:33N 56°10' E 015°38'0 0.0
2014-Oct-24 13:33N 56°10' E 015°38'0 0.0
2014-Oct-24 12:33N 56°10' E 015°38'0 0.0
2014-Oct-24 11:33N 56°10' E 015°38'0 0.0
2014-Oct-24 10:33N 56°10' E 015°38'0 0.0
2014-Oct-24 09:33N 56°10' E 015°38'0 0.0
2014-Oct-24 08:33N 56°10' E 015°38'0 0.0
2014-Oct-24 07:33N 56°10' E 015°38'4 4.1
2014-Oct-24 06:33N 56°06' E 015°35'1413.9
2014-Oct-24 05:33N 55°57' E 015°53'6715.5
2014-Oct-24 01:16N 55°21' E 017°32'1215.6
2014-Oct-24 00:28N 55°14' E 017°51'1415.7
2014-Oct-23 23:33N 55°06' E 018°11'1615.8
2014-Oct-23 22:33N 54°57' E 018°33'1414.4
2014-Oct-23 21:33N 54°46' E 018°50'1313.3
2014-Oct-23 20:33N 54°33' E 018°50'1211.5
2014-Oct-23 19:33N 54°33' E 018°30'0 0.0
2014-Oct-23 18:33N 54°33' E 018°30'8 8.4
2014-Oct-23 17:33N 54°32' E 018°45'1413.8
2014-Oct-23 16:33N 54°45' E 018°50'1817.6
2014-Oct-23 15:33N 54°58' E 018°30'1817.8
2014-Oct-23 14:33N 55°09' E 018°04'8717.4
2014-Oct-23 09:33N 55°56' E 015°55'1515.1
2014-Oct-23 08:33N 56°06' E 015°34'5 4.6
2014-Oct-23 07:33N 56°10' E 015°38'0 0.1
2014-Oct-23 06:33N 56°10' E 015°38'1111.1
2014-Oct-23 05:34N 55°60' E 015°46'8615.7
2014-Oct-23 00:06N 55°12' E 017°52'915.6
2014-Oct-22 23:33N 55°07' E 018°04'1615.8
2014-Oct-22 22:33N 54°59' E 018°27'1515.1
2014-Oct-22 21:33N 54°48' E 018°46'1313.1
2014-Oct-22 20:33N 54°36' E 018°54'1212.3
2014-Oct-22 19:34N 54°32' E 018°34'2 2.2
2014-Oct-22 18:33N 54°33' E 018°30'3 3.2
2014-Oct-22 17:33N 54°32' E 018°36'1514.6
2014-Oct-22 16:33N 54°42' E 018°55'1716.8
2014-Oct-22 15:33N 54°55' E 018°37'1716.6
2014-Oct-22 14:33N 55°04' E 018°13'8416.4
2014-Oct-22 09:28N 55°51' E 016°11'1516.8
2014-Oct-22 08:33N 55°59' E 015°48'1211.6
2014-Oct-22 07:33N 56°09' E 015°36'2 1.5
2014-Oct-22 06:32N 56°10' E 015°38'0 0.3
2014-Oct-22 05:33N 56°10' E 015°37'1312.7
2014-Oct-22 04:33N 55°59' E 015°49'1716.9
2014-Oct-22 03:33N 55°52' E 016°16'6716.7
2014-Oct-21 23:32N 55°13' E 017°53'1717.1
2014-Oct-21 22:33N 55°03' E 018°17'1716.6
2014-Oct-21 21:33N 54°53' E 018°40'1716.6
2014-Oct-21 20:33N 54°40' E 018°57'1313.3
2014-Oct-21 19:33N 54°32' E 018°38'5 4.6
2014-Oct-21 18:32N 54°33' E 018°30'0 0.0
2014-Oct-21 17:32N 54°33' E 018°30'9 9.4
2014-Oct-21 16:33N 54°32' E 018°46'1414.5
2014-Oct-21 15:33N 54°47' E 018°48'1818.5
2014-Oct-21 14:33N 54°60' E 018°26'1818.1
2014-Oct-21 13:33N 55°11' E 018°00'7518.3
2014-Oct-21 09:26N 55°51' E 016°08'1517.4
2014-Oct-21 08:33N 55°60' E 015°45'1111.0
2014-Oct-21 07:34N 56°10' E 015°38'0 0.1
2014-Oct-21 06:32N 56°10' E 015°38'0 0.0
2014-Oct-21 05:32N 56°10' E 015°38'9 8.9
2014-Oct-21 04:34N 56°01' E 015°41'  
Track history (hours):
 
Tides and Currents Weather Stations Pressure Air Temp Water Temp Dewpoint Dewpoint Depression Visibility Wind Speed Wind Dir Waves Ship Positions

Stena Germanica

Last reported at 2014-Oct-31 01:23 UTC. Time now 2014-Oct-31 04:08 UTC.
Position N 55°14' E 017°50'.

Length 176 m; draft 6.2 m.

Type: Passenger vessel. MMSI: 265292000.

Date/timePositionNaut miles runAvg speedWind from/ knotsBaromVisibWave heightAir tempDewpointWater temp
2014-Oct-31 01:23N 55°14' E 017°50'1316.2
2014-Oct-31 00:33N 55°06' E 018°10'1616.1
2014-Oct-30 23:33N 54°57' E 018°33'1615.7
2014-Oct-30 22:33N 54°45' E 018°51'1313.5
2014-Oct-30 21:33N 54°32' E 018°49'1110.6
2014-Oct-30 20:34N 54°33' E 018°30'0 0.0
2014-Oct-30 19:33N 54°33' E 018°30'7 7.3
2014-Oct-30 18:33N 54°32' E 018°43'1313.2
2014-Oct-30 17:34N 54°45' E 018°51'1817.8
2014-Oct-30 16:33N 54°58' E 018°30'1917.7
2014-Oct-30 15:29N 55°09' E 018°03'8817.7
2014-Oct-30 10:31N 55°57' E 015°53'1414.9
2014-Oct-30 09:33N 56°07' E 015°35'3 3.4
2014-Oct-30 08:33N 56°10' E 015°38'1 0.5
2014-Oct-30 07:33N 56°10' E 015°37'1211.7
2014-Oct-30 06:33N 55°59' E 015°47'9014.8
2014-Oct-30 00:30N 55°10' E 018°00'1414.8
2014-Oct-29 23:33N 55°02' E 018°20'1514.7
2014-Oct-29 22:33N 54°53' E 018°39'1514.9
2014-Oct-29 21:33N 54°42' E 018°57'1313.1
2014-Oct-29 20:33N 54°32' E 018°42'7 6.5
2014-Oct-29 19:32N 54°33' E 018°30'0 0.0
2014-Oct-29 18:33N 54°33' E 018°30'7 7.3
2014-Oct-29 17:33N 54°32' E 018°43'1413.6
2014-Oct-29 16:34N 54°45' E 018°51'1818.0
2014-Oct-29 15:33N 54°58' E 018°31'1917.9
2014-Oct-29 14:30N 55°10' E 018°04'86 9.4
2014-Oct-29 05:20N 55°57' E 015°57'3316.6
2014-Oct-29 03:20N 55°38' E 016°45'2116.9
2014-Oct-29 02:04N 55°26' E 017°17'917.1
2014-Oct-29 01:33N 55°21' E 017°30'1717.1
2014-Oct-29 00:34N 55°12' E 017°55'1717.0
2014-Oct-28 23:33N 55°03' E 018°20'1717.5
2014-Oct-28 22:34N 54°51' E 018°43'1616.3
2014-Oct-28 21:34N 54°36' E 018°55'1313.1
2014-Oct-28 20:33N 54°32' E 018°33'2 1.9
2014-Oct-28 19:33N 54°33' E 018°30'0 0.0
2014-Oct-28 18:33N 54°33' E 018°30'8 8.3
2014-Oct-28 17:33N 54°32' E 018°44'1413.8
2014-Oct-28 16:33N 54°46' E 018°50'1717.3
2014-Oct-28 15:33N 54°58' E 018°30'1817.2
2014-Oct-28 14:32N 55°08' E 018°04'1817.6
2014-Oct-28 13:31N 55°18' E 017°38'2117.6
2014-Oct-28 12:20N 55°29' E 017°07'1517.5
2014-Oct-28 11:29N 55°38' E 016°46'1617.3
2014-Oct-28 10:33N 55°46' E 016°21'3315.9
2014-Oct-28 08:28N 56°06' E 015°34'7910.0
2014-Oct-28 00:33N 55°22' E 017°30'1614.6
2014-Oct-27 23:28N 55°13' E 017°53'1614.7
2014-Oct-27 22:22N 55°04' E 018°17'1214.7
2014-Oct-27 21:33N 54°57' E 018°34'1514.6
2014-Oct-27 20:33N 54°46' E 018°50'1312.7
2014-Oct-27 19:33N 54°33' E 018°51'1211.5
2014-Oct-27 18:33N 54°33' E 018°31'0 0.3
2014-Oct-27 17:33N 54°33' E 018°30'0 0.0
2014-Oct-27 16:33N 54°33' E 018°30'0 0.0
2014-Oct-27 15:33N 54°33' E 018°30'0 0.0
2014-Oct-27 14:33N 54°33' E 018°30'0 0.0
2014-Oct-27 13:33N 54°33' E 018°30'0 0.0
2014-Oct-27 12:33N 54°33' E 018°30'0 0.0
2014-Oct-27 11:33N 54°33' E 018°30'0 0.0
2014-Oct-27 10:33N 54°33' E 018°30'0 0.0
2014-Oct-27 09:33N 54°33' E 018°30'0 0.0
2014-Oct-27 08:33N 54°33' E 018°30'1 1.0
2014-Oct-27 07:33N 54°32' E 018°32'1211.8
2014-Oct-27 06:33N 54°35' E 018°52'1211.6
2014-Oct-27 05:34N 54°46' E 018°49'1515.0
2014-Oct-27 04:34N 54°58' E 018°32'1515.3
2014-Oct-27 03:34N 55°06' E 018°10'1615.6
2014-Oct-27 02:33N 55°15' E 017°47'9112.2
2014-Oct-26 19:04N 56°10' E 015°38'10515.0
2014-Oct-26 12:05N 55°08' E 018°08'916.4
2014-Oct-26 11:33N 55°03' E 018°20'1616.3
2014-Oct-26 10:34N 54°52' E 018°41'1616.2
2014-Oct-26 09:34N 54°39' E 018°57'1413.7
2014-Oct-26 08:34N 54°32' E 018°37'4 3.6
2014-Oct-26 07:32N 54°33' E 018°30'0 0.0
2014-Oct-26 06:32N 54°33' E 018°30'7 7.4
2014-Oct-26 05:33N 54°32' E 018°43'1312.9
2014-Oct-26 04:33N 54°43' E 018°54'1615.9
2014-Oct-26 03:33N 54°55' E 018°36'1615.8
2014-Oct-26 02:33N 55°05' E 018°14'1716.0
2014-Oct-26 01:30N 55°14' E 017°49'7016.0
2014-Oct-25 21:06N 55°53' E 016°05'916.1
2014-Oct-25 20:33N 55°57' E 015°52'1413.7
2014-Oct-25 19:33N 56°08' E 015°35'3 2.8
2014-Oct-25 18:34N 56°10' E 015°38'0 0.0
2014-Oct-25 17:33N 56°10' E 015°38'9 9.4
2014-Oct-25 16:34N 56°01' E 015°42'10116.8
2014-Oct-25 10:34N 55°06' E 018°11'1716.7
2014-Oct-25 09:34N 54°56' E 018°35'1716.7
2014-Oct-25 08:34N 54°43' E 018°54'1313.3
2014-Oct-25 07:34N 54°32' E 018°43'8 7.3
2014-Oct-25 06:31N 54°33' E 018°30'0 0.0
2014-Oct-25 05:31N 54°33' E 018°30'7 7.5
2014-Oct-25 04:33N 54°32' E 018°43'1312.8
2014-Oct-25 03:33N 54°43' E 018°56'1414.5
2014-Oct-25 02:33N 54°55' E 018°42'1414.4
2014-Oct-25 01:33N 55°02' E 018°21'1414.5
2014-Oct-25 00:33N 55°10' E 017°60'1714.6
2014-Oct-24 23:23N 55°20' E 017°35'5714.3
2014-Oct-24 19:26N 55°50' E 016°11'1314.8
2014-Oct-24 18:33N 55°58' E 015°52'1313.1
2014-Oct-24 17:33N 56°07' E 015°35'4 3.5
2014-Oct-24 16:33N 56°10' E 015°38'0 0.0
2014-Oct-24 15:33N 56°10' E 015°38'0 0.0
2014-Oct-24 14:33N 56°10' E 015°38'0 0.0
2014-Oct-24 13:33N 56°10' E 015°38'0 0.0
2014-Oct-24 12:33N 56°10' E 015°38'0 0.0
2014-Oct-24 11:33N 56°10' E 015°38'0 0.0
2014-Oct-24 10:33N 56°10' E 015°38'0 0.0
2014-Oct-24 09:33N 56°10' E 015°38'0 0.0
2014-Oct-24 08:33N 56°10' E 015°38'0 0.0
2014-Oct-24 07:33N 56°10' E 015°38'4 4.1
2014-Oct-24 06:33N 56°06' E 015°35'1413.9
2014-Oct-24 05:33N 55°57' E 015°53'6715.5
2014-Oct-24 01:16N 55°21' E 017°32'1215.6
2014-Oct-24 00:28N 55°14' E 017°51'1415.7
2014-Oct-23 23:33N 55°06' E 018°11'1615.8
2014-Oct-23 22:33N 54°57' E 018°33'1414.4
2014-Oct-23 21:33N 54°46' E 018°50'1313.3
2014-Oct-23 20:33N 54°33' E 018°50'1211.5
2014-Oct-23 19:33N 54°33' E 018°30'0 0.0
2014-Oct-23 18:33N 54°33' E 018°30'8 8.4
2014-Oct-23 17:33N 54°32' E 018°45'1413.8
2014-Oct-23 16:33N 54°45' E 018°50'1817.6
2014-Oct-23 15:33N 54°58' E 018°30'1817.8
2014-Oct-23 14:33N 55°09' E 018°04'8717.4
2014-Oct-23 09:33N 55°56' E 015°55'1515.1
2014-Oct-23 08:33N 56°06' E 015°34'5 4.6
2014-Oct-23 07:33N 56°10' E 015°38'0 0.1
2014-Oct-23 06:33N 56°10' E 015°38'1111.1
2014-Oct-23 05:34N 55°60' E 015°46'8615.7
2014-Oct-23 00:06N 55°12' E 017°52'915.6
2014-Oct-22 23:33N 55°07' E 018°04'1615.8
2014-Oct-22 22:33N 54°59' E 018°27'1515.1
2014-Oct-22 21:33N 54°48' E 018°46'1313.1
2014-Oct-22 20:33N 54°36' E 018°54'1212.3
2014-Oct-22 19:34N 54°32' E 018°34'2 2.2
2014-Oct-22 18:33N 54°33' E 018°30'3 3.2
2014-Oct-22 17:33N 54°32' E 018°36'1514.6
2014-Oct-22 16:33N 54°42' E 018°55'1716.8
2014-Oct-22 15:33N 54°55' E 018°37'1716.6
2014-Oct-22 14:33N 55°04' E 018°13'8416.4
2014-Oct-22 09:28N 55°51' E 016°11'1516.8
2014-Oct-22 08:33N 55°59' E 015°48'1211.6
2014-Oct-22 07:33N 56°09' E 015°36'2 1.5
2014-Oct-22 06:32N 56°10' E 015°38'0 0.3
2014-Oct-22 05:33N 56°10' E 015°37'1312.7
2014-Oct-22 04:33N 55°59' E 015°49'1716.9
2014-Oct-22 03:33N 55°52' E 016°16'6716.7
2014-Oct-21 23:32N 55°13' E 017°53'1717.1
2014-Oct-21 22:33N 55°03' E 018°17'1716.6
2014-Oct-21 21:33N 54°53' E 018°40'1716.6
2014-Oct-21 20:33N 54°40' E 018°57'1313.3
2014-Oct-21 19:33N 54°32' E 018°38'5 4.6
2014-Oct-21 18:32N 54°33' E 018°30'0 0.0
2014-Oct-21 17:32N 54°33' E 018°30'9 9.4
2014-Oct-21 16:33N 54°32' E 018°46'1414.5
2014-Oct-21 15:33N 54°47' E 018°48'1818.5
2014-Oct-21 14:33N 54°60' E 018°26'1818.1
2014-Oct-21 13:33N 55°11' E 018°00'7518.3
2014-Oct-21 09:26N 55°51' E 016°08'1517.4
2014-Oct-21 08:33N 55°60' E 015°45'1111.0
2014-Oct-21 07:34N 56°10' E 015°38'0 0.1
2014-Oct-21 06:32N 56°10' E 015°38'0 0.0
2014-Oct-21 05:32N 56°10' E 015°38'9 8.9
2014-Oct-21 04:34N 56°01' E 015°41'  

Dump ship's entire track history